createdAt,value
2018-02-07T12:32:07.764Z,60.08
2018-02-07T12:34:36.094Z,60.40
2018-02-07T12:37:04.422Z,59.92
2018-02-07T12:39:32.737Z,60.23
2018-02-07T12:42:01.299Z,58.91
2018-02-07T12:44:32.010Z,62.30
2018-02-07T12:47:00.340Z,61.32
2018-02-07T12:49:29.022Z,61.24
2018-02-07T12:51:57.454Z,63.16
2018-02-07T12:54:25.964Z,62.19
2018-02-07T12:56:55.031Z,63.68
2018-02-07T12:59:23.356Z,61.77
2018-02-07T13:01:51.937Z,61.31
2018-02-07T13:04:20.230Z,62.41
2018-02-07T13:06:49.013Z,61.97
2018-02-07T13:09:18.069Z,61.76
2018-02-07T13:11:47.312Z,61.81
2018-02-07T13:14:15.681Z,61.87
2018-02-07T13:16:44.028Z,62.26
2018-02-07T13:19:12.361Z,61.53
2018-02-07T13:21:41.470Z,62.51
2018-02-07T13:24:09.901Z,62.50
2018-02-07T13:26:38.217Z,62.52
2018-02-07T13:29:06.698Z,62.30
2018-02-07T13:31:35.253Z,63.29
2018-02-07T13:34:03.612Z,64.16
2018-02-07T13:36:32.152Z,63.49
2018-02-07T13:39:01.257Z,61.92
2018-02-07T13:41:29.995Z,62.54
2018-02-07T13:43:58.323Z,62.26
2018-02-07T13:46:27.448Z,62.30
2018-02-07T13:48:55.783Z,63.65
2018-02-07T13:51:25.109Z,62.44
2018-02-07T13:53:53.420Z,62.29
2018-02-07T13:56:21.771Z,62.32
2018-02-07T13:58:50.081Z,61.97
2018-02-07T14:01:18.407Z,62.26
2018-02-07T14:03:46.739Z,61.93
2018-02-07T14:06:16.874Z,62.27
2018-02-07T14:08:46.004Z,61.54
2018-02-07T14:11:14.351Z,62.74
2018-02-07T14:13:43.454Z,62.44
2018-02-07T14:16:12.797Z,62.58
2018-02-07T14:18:41.290Z,62.82
2018-02-07T14:21:09.623Z,62.42
2018-02-07T14:23:38.103Z,61.39
2018-02-07T14:26:06.612Z,59.31
2018-02-07T14:28:35.005Z,58.09
2018-02-07T14:31:03.312Z,59.77
2018-02-07T14:33:32.443Z,60.32
2018-02-07T14:36:00.747Z,61.06
2018-02-07T14:38:29.918Z,61.55
2018-02-07T14:40:58.290Z,61.83
2018-02-07T14:43:27.477Z,62.33
2018-02-07T14:45:55.839Z,62.82
2018-02-07T14:48:24.923Z,62.31
2018-02-07T14:50:54.419Z,62.96
2018-02-07T14:53:23.659Z,62.94
2018-02-07T14:55:52.140Z,63.08
2018-02-07T14:58:20.575Z,64.44
2018-02-07T15:00:49.762Z,63.63
2018-02-07T15:03:18.089Z,64.15
2018-02-07T15:05:49.500Z,64.67
2018-02-07T15:08:17.967Z,64.85
2018-02-07T15:10:46.295Z,64.29
2018-02-07T15:13:14.776Z,64.46
2018-02-07T15:15:43.068Z,64.70
2018-02-07T15:18:11.554Z,64.99
2018-02-07T15:20:39.918Z,64.94
2018-02-07T15:23:08.552Z,64.97
2018-02-07T15:25:37.223Z,64.77
2018-02-07T15:28:05.522Z,65.94
2018-02-07T15:30:33.938Z,66.02
2018-02-07T15:33:02.246Z,65.82
2018-02-07T15:35:32.403Z,65.90
2018-02-07T15:38:01.964Z,65.44
2018-02-07T15:40:30.382Z,66.10
2018-02-07T15:42:58.745Z,66.48
2018-02-07T15:45:28.034Z,67.34
2018-02-07T15:47:56.377Z,66.74
2018-02-07T15:50:24.690Z,67.17
2018-02-07T15:52:53.836Z,66.85
2018-02-07T15:55:22.463Z,66.86
2018-02-07T15:57:52.347Z,67.68
2018-02-07T16:00:20.725Z,67.46
2018-02-07T16:02:49.516Z,67.58
2018-02-07T16:05:17.878Z,67.71
2018-02-07T16:07:46.196Z,66.85
2018-02-07T16:10:14.536Z,67.24
2018-02-07T16:12:42.852Z,67.32
2018-02-07T16:15:11.401Z,67.92
2018-02-07T16:17:39.879Z,68.76
2018-02-07T16:20:08.215Z,68.49
2018-02-07T16:22:36.560Z,69.17
2018-02-07T16:25:04.908Z,69.41
2018-02-07T16:27:33.233Z,69.62
2018-02-07T16:30:02.321Z,69.26
2018-02-07T16:32:31.438Z,69.60
2018-02-07T16:34:59.765Z,69.07
2018-02-07T16:37:28.117Z,69.04
2018-02-07T16:39:56.425Z,69.61
2018-02-07T16:42:24.995Z,71.06
2018-02-07T16:44:53.566Z,70.50
2018-02-07T16:47:21.890Z,70.47
2018-02-07T16:49:51.271Z,71.73
2018-02-07T16:52:19.830Z,72.07
2018-02-07T16:54:48.344Z,72.60
2018-02-07T16:57:17.728Z,72.70
2018-02-07T16:59:47.672Z,72.94
2018-02-07T17:02:16.218Z,72.41
2018-02-07T17:04:44.623Z,72.73
2018-02-07T17:07:13.808Z,72.71
2018-02-07T17:09:44.074Z,72.56
2018-02-07T17:12:12.417Z,71.74
2018-02-07T17:14:41.613Z,72.87
2018-02-07T17:17:10.872Z,73.03
2018-02-07T17:19:39.612Z,72.07
2018-02-07T17:22:08.044Z,71.68
2018-02-07T17:24:37.179Z,71.68
2018-02-07T17:27:06.275Z,70.67
2018-02-07T17:29:35.607Z,71.47
2018-02-07T17:32:03.996Z,70.30
2018-02-07T17:34:32.414Z,70.65
2018-02-07T17:37:01.435Z,71.04
2018-02-07T17:39:30.009Z,70.11
2018-02-07T17:41:58.842Z,71.33
2018-02-07T17:44:27.542Z,71.52
2018-02-07T17:47:03.097Z,72.38
2018-02-07T17:49:31.989Z,72.45
2018-02-07T17:52:01.014Z,71.86
2018-02-07T17:54:29.787Z,72.06
2018-02-07T17:56:58.670Z,72.01
2018-02-07T17:59:27.138Z,73.38
2018-02-07T18:01:56.808Z,72.86
2018-02-07T18:04:26.422Z,73.87
2018-02-07T18:06:55.088Z,74.03
2018-02-07T18:09:27.508Z,74.07
2018-02-07T18:11:56.399Z,73.74
2018-02-07T18:14:26.043Z,74.61
2018-02-07T18:16:54.823Z,74.78
2018-02-07T18:19:23.801Z,74.63
2018-02-07T18:21:53.330Z,74.99
2018-02-07T18:24:22.321Z,74.31
2018-02-07T18:26:51.121Z,74.27
2018-02-07T18:29:20.731Z,74.80
2018-02-07T18:31:49.463Z,74.75
2018-02-07T18:34:20.558Z,74.97
2018-02-07T18:36:49.112Z,75.34
2018-02-07T18:39:19.618Z,75.22
2018-02-07T18:41:48.508Z,75.53
2018-02-07T18:44:18.361Z,75.90
2018-02-07T18:46:47.251Z,76.23
2018-02-07T18:49:15.918Z,76.38
2018-02-07T18:51:44.720Z,76.37
2018-02-07T18:54:13.536Z,76.54
2018-02-07T18:56:42.095Z,76.11
2018-02-07T18:59:10.855Z,75.94
2018-02-07T19:01:39.908Z,76.42
2018-02-07T19:04:09.362Z,76.26
2018-02-07T19:06:39.033Z,76.68
2018-02-07T19:09:09.063Z,77.49
2018-02-07T19:11:38.442Z,76.52
2018-02-07T19:14:08.366Z,76.28
2018-02-07T19:16:38.232Z,76.89
2018-02-07T19:19:07.625Z,76.84
2018-02-07T19:21:36.626Z,77.60
2018-02-07T19:24:06.328Z,76.94
2018-02-07T19:26:35.128Z,77.56
2018-02-07T19:29:03.782Z,77.70
2018-02-07T19:31:33.144Z,76.92
2018-02-07T19:34:01.775Z,76.57
2018-02-07T19:36:30.389Z,77.65
2018-02-07T19:39:12.487Z,78.45
2018-02-07T19:41:41.229Z,77.81
2018-02-07T19:44:10.543Z,77.99
2018-02-07T19:46:39.496Z,77.63
2018-02-07T19:49:09.450Z,77.32
2018-02-07T19:51:39.513Z,77.16
2018-02-07T19:54:11.579Z,76.82
2018-02-07T19:56:40.959Z,77.09
2018-02-07T19:59:10.539Z,76.92
2018-02-07T20:01:40.591Z,77.33
2018-02-07T20:04:10.369Z,76.84
2018-02-07T20:06:38.926Z,76.55
2018-02-07T20:09:07.718Z,77.04
2018-02-07T20:11:37.544Z,76.91
2018-02-07T20:14:06.264Z,78.04
2018-02-07T20:16:35.090Z,78.48
2018-02-07T20:19:04.709Z,78.68
2018-02-07T20:21:33.295Z,78.43
2018-02-07T20:24:01.816Z,79.02
2018-02-07T20:26:31.214Z,79.00
2018-02-07T20:29:00.988Z,79.56
2018-02-07T20:31:29.657Z,79.60
2018-02-07T20:33:58.316Z,79.21
2018-02-07T20:36:26.923Z,79.20
2018-02-07T20:38:56.744Z,79.49
2018-02-07T20:41:25.741Z,79.59
2018-02-07T20:43:54.650Z,79.52
2018-02-07T20:46:23.457Z,80.16
2018-02-07T20:48:53.345Z,79.27
2018-02-07T20:51:22.096Z,79.19
2018-02-07T20:53:51.336Z,79.18
2018-02-07T20:56:19.970Z,79.06
2018-02-07T20:58:48.767Z,79.15
2018-02-07T21:01:18.309Z,78.99
2018-02-07T21:03:48.033Z,79.28
2018-02-07T21:06:17.121Z,79.32
2018-02-07T21:08:46.799Z,78.80
2018-02-07T21:11:15.664Z,79.51
2018-02-07T21:13:44.124Z,79.76
2018-02-07T21:16:13.652Z,79.97
2018-02-07T21:18:42.797Z,79.83
2018-02-07T21:21:11.365Z,80.44
2018-02-07T21:23:39.774Z,80.76
2018-02-07T21:26:08.301Z,80.22
2018-02-07T21:28:38.354Z,80.53
2018-02-07T21:31:06.726Z,80.07
2018-02-07T21:33:35.054Z,80.31
2018-02-07T21:36:04.636Z,79.45
2018-02-07T21:38:33.973Z,79.54
2018-02-07T21:41:03.056Z,79.66
2018-02-07T21:43:32.194Z,80.44
2018-02-07T21:46:00.566Z,79.97
2018-02-07T21:48:29.048Z,79.97
2018-02-07T21:50:57.385Z,79.38
2018-02-07T21:53:26.701Z,79.01
2018-02-07T21:55:55.163Z,78.97
2018-02-07T21:58:24.347Z,79.56
2018-02-07T22:00:55.103Z,79.14
2018-02-07T22:03:24.217Z,79.21
2018-02-07T22:05:52.654Z,78.96
2018-02-07T22:08:21.142Z,79.08
2018-02-07T22:10:49.551Z,79.33
2018-02-07T22:13:18.128Z,79.88
2018-02-07T22:15:46.467Z,79.95
2018-02-07T22:18:14.793Z,80.27
2018-02-07T22:20:43.173Z,80.63
2018-02-07T22:23:11.524Z,79.28
2018-02-07T22:25:40.658Z,79.36
2018-02-07T22:28:10.712Z,79.00
2018-02-07T22:30:39.817Z,79.60
2018-02-07T22:33:08.916Z,79.05
2018-02-07T22:35:38.122Z,79.00
2018-02-07T22:38:07.208Z,79.02
2018-02-07T22:40:36.456Z,79.51
2018-02-07T22:43:04.789Z,80.14
2018-02-07T22:45:33.957Z,80.23
2018-02-07T22:48:03.071Z,79.80
2018-02-07T22:50:32.223Z,80.79
2018-02-07T22:53:00.817Z,79.81
2018-02-07T22:55:29.223Z,80.26
2018-02-07T22:57:58.391Z,80.27
2018-02-07T23:00:26.906Z,80.37
2018-02-07T23:02:56.046Z,80.50
2018-02-07T23:05:24.398Z,80.23
2018-02-07T23:07:53.550Z,79.74
2018-02-07T23:10:21.966Z,80.35
2018-02-07T23:12:50.303Z,80.27
2018-02-07T23:15:18.675Z,80.02
2018-02-07T23:17:47.024Z,79.95
2018-02-07T23:20:15.369Z,79.95
2018-02-07T23:22:43.716Z,79.96
2018-02-07T23:25:12.801Z,80.45
2018-02-07T23:27:41.218Z,80.06
2018-02-07T23:30:09.553Z,80.67
2018-02-07T23:32:37.959Z,81.11
2018-02-07T23:35:07.051Z,80.58
2018-02-07T23:37:36.433Z,80.32
2018-02-07T23:40:04.727Z,80.06
2018-02-07T23:42:33.819Z,79.79
2018-02-07T23:45:02.165Z,79.76
2018-02-07T23:47:30.534Z,80.46
2018-02-07T23:49:58.840Z,80.41
2018-02-07T23:52:27.650Z,80.18
2018-02-07T23:54:56.078Z,80.84
2018-02-07T23:57:25.193Z,80.30
2018-02-07T23:59:53.509Z,80.69
